Time;durP1;ratioP1;P1;durP2;ratioP2;P2;SDS_P1;SDS_P2;PMS_P1;PMS_P2;Temp;Humidity;BMP_temperature;BMP_pressure;BME280_temperature;BME280_humidity;BME280_pressure;Samples;Min_cycle;Max_cycle;Signal;HPM_P1;HPM_P2
2022/08/16 00:02:09;;;;;;;12.80;10.98;;;;;;;28.19;41.15;98611.97;4887361;29;20028;-88
2022/08/16 00:04:35;;;;;;;10.82;9.05;;;;;;;28.19;41.16;98611.97;4919948;29;20119;-88
2022/08/16 00:07:00;;;;;;;10.02;8.93;;;;;;;28.18;41.15;98607.59;4905486;29;20434;-89
2022/08/16 00:09:26;;;;;;;11.18;9.80;;;;;;;28.17;41.10;98609.44;4890371;29;20089;-88
2022/08/16 00:11:52;;;;;;;13.63;10.07;;;;;;;28.15;40.91;98606.91;4892159;29;20119;-89
2022/08/16 00:14:22;;;;;;;11.60;9.95;;;;;;;28.14;41.29;98591.81;4895621;29;20024;-89
2022/08/16 00:16:48;;;;;;;12.32;9.85;;;;;;;28.13;40.87;98592.84;4894896;29;20043;-88
2022/08/16 00:19:18;;;;;;;13.55;9.75;;;;;;;28.15;41.10;98596.19;4897019;29;20031;-88
2022/08/16 00:21:45;;;;;;;12.43;9.98;;;;;;;28.13;41.19;98584.78;4896592;29;20028;-90
2022/08/16 00:24:12;;;;;;;10.90;9.48;;;;;;;28.13;41.11;98582.09;4895653;29;20059;-89
2022/08/16 00:26:38;;;;;;;12.10;9.80;;;;;;;28.12;41.12;98575.06;4894862;29;20064;-90
2022/08/16 00:29:04;;;;;;;11.35;9.88;;;;;;;28.11;41.49;98576.06;4894629;29;20348;-88
2022/08/16 00:31:32;;;;;;;11.70;10.00;;;;;;;28.11;41.07;98572.53;4893620;29;20043;-88
2022/08/16 00:33:57;;;;;;;11.85;10.57;;;;;;;28.10;41.14;98582.44;4888803;29;20036;-88
2022/08/16 00:36:23;;;;;;;11.48;9.50;;;;;;;28.10;41.08;98582.44;4889397;29;20079;-88
2022/08/16 00:38:49;;;;;;;11.23;10.00;;;;;;;28.10;41.18;98570.88;4888396;29;20037;-87
2022/08/16 00:41:14;;;;;;;11.48;10.10;;;;;;;28.09;41.29;98570.00;4888432;29;20032;-87
2022/08/16 00:43:40;;;;;;;11.35;9.57;;;;;;;28.09;41.46;98569.19;4888378;29;20123;-87
2022/08/16 00:46:29;;;;;;;10.80;9.55;;;;;;;28.07;41.16;98572.03;4887878;29;20119;-87
2022/08/16 00:48:56;;;;;;;10.93;9.50;;;;;;;28.07;41.13;98561.31;4888603;29;20028;-88
2022/08/16 00:51:25;;;;;;;11.88;9.45;;;;;;;28.06;41.14;98559.63;4888942;29;20478;-88
2022/08/16 00:53:52;;;;;;;12.80;9.48;;;;;;;28.06;41.56;98565.00;4890532;29;20048;-87
2022/08/16 00:56:25;;;;;;;10.68;9.35;;;;;;;28.06;41.05;98565.00;4890047;29;20036;-87
2022/08/16 00:58:51;;;;;;;11.20;10.00;;;;;;;28.06;41.64;98564.13;4889361;29;20111;-87
2022/08/16 01:01:18;;;;;;;10.43;9.32;;;;;;;28.05;41.64;98557.94;4904565;29;20036;-88
2022/08/16 01:03:47;;;;;;;10.38;8.95;;;;;;;28.01;41.26;98567.31;4887743;29;20028;-88
2022/08/16 01:06:15;;;;;;;10.05;9.05;;;;;;;28.01;41.23;98573.53;4892403;29;20437;-89
2022/08/16 01:08:43;;;;;;;10.60;9.30;;;;;;;27.98;41.48;98567.63;4892254;29;20469;-88
2022/08/16 01:11:09;;;;;;;12.18;9.73;;;;;;;27.97;41.64;98571.31;4891223;29;20064;-88
2022/08/16 01:13:37;;;;;;;10.07;8.73;;;;;;;27.95;41.27;98567.97;4891435;29;20047;-87
2022/08/16 01:16:17;;;;;;;9.65;8.65;;;;;;;27.92;41.47;98568.25;4887262;29;20382;-89
2022/08/16 01:18:56;;;;;;;11.05;8.52;;;;;;;27.87;41.37;98566.94;4887674;29;20442;-88
2022/08/16 01:21:25;;;;;;;10.52;8.45;;;;;;;27.85;41.54;98563.56;4891053;29;20060;-88
2022/08/16 01:23:58;;;;;;;10.50;7.65;;;;;;;27.84;41.59;98566.41;4921278;29;20037;-90
2022/08/16 01:26:26;;;;;;;8.48;7.07;;;;;;;27.84;41.37;98572.59;4906324;29;20066;-86
2022/08/16 01:28:54;;;;;;;9.35;7.60;;;;;;;27.81;41.51;98567.56;4891412;29;20032;-88
2022/08/16 01:31:21;;;;;;;10.02;7.50;;;;;;;27.81;41.40;98559.53;4892162;29;20048;-89
2022/08/16 01:33:48;;;;;;;9.25;8.35;;;;;;;27.80;41.34;98554.31;4891815;29;20032;-86
2022/08/16 01:36:14;;;;;;;8.65;7.45;;;;;;;27.80;41.48;98548.97;4888168;29;20059;-89
2022/08/16 01:38:46;;;;;;;9.77;7.68;;;;;;;27.77;41.13;98544.75;4922380;29;20033;-87
2022/08/16 01:41:15;;;;;;;10.90;8.15;;;;;;;27.77;41.41;98550.13;4891747;29;20431;-88
2022/08/16 01:43:43;;;;;;;8.57;7.47;;;;;;;27.76;41.13;98548.44;4893398;29;20028;-88
2022/08/16 01:46:20;;;;;;;8.98;7.35;;;;;;;27.76;41.44;98543.09;4892724;29;20028;-88
2022/08/16 01:48:47;;;;;;;9.07;7.43;;;;;;;27.74;41.55;98542.38;4892816;29;20079;-86
2022/08/16 01:51:15;;;;;;;7.80;6.85;;;;;;;27.73;41.30;98543.41;4894486;29;20028;-87
2022/08/16 01:53:42;;;;;;;8.20;7.40;;;;;;;27.72;41.30;98542.56;4893540;29;20028;-87
2022/08/16 01:56:08;;;;;;;8.77;7.55;;;;;;;27.72;41.51;98541.72;4893167;29;20045;-88
2022/08/16 01:58:34;;;;;;;8.80;7.13;;;;;;;27.72;41.42;98541.72;4895618;29;20036;-88
2022/08/16 02:01:00;;;;;;;10.05;8.25;;;;;;;27.69;41.26;98534.00;4896256;29;20071;-88
2022/08/16 02:03:26;;;;;;;8.48;7.05;;;;;;;27.68;41.57;98535.00;4895824;29;20037;-90
2022/08/16 02:05:52;;;;;;;9.43;7.80;;;;;;;27.66;41.63;98532.50;4896654;29;20056;-87
2022/08/16 02:08:17;;;;;;;10.27;7.45;;;;;;;27.69;41.61;98525.97;4909818;29;20077;-87
2022/08/16 02:10:43;;;;;;;9.60;7.95;;;;;;;27.67;41.45;98522.59;4894687;29;20060;-88
2022/08/16 02:13:09;;;;;;;8.95;6.93;;;;;;;27.66;41.54;98520.91;4893406;29;20046;-87
2022/08/16 02:15:38;;;;;;;8.05;7.25;;;;;;;27.66;41.33;98516.41;4907010;29;20055;-88
2022/08/16 02:18:04;;;;;;;9.10;7.82;;;;;;;27.65;41.30;98516.56;4889792;29;20028;-87
2022/08/16 02:20:34;;;;;;;8.82;7.85;;;;;;;27.63;41.66;98515.88;4890263;29;20037;-87
2022/08/16 02:23:00;;;;;;;9.02;6.85;;;;;;;27.64;41.68;98513.03;4889551;29;20350;-88
2022/08/16 02:25:26;;;;;;;12.73;7.68;;;;;;;27.63;41.77;98519.41;4889227;29;20028;-86
2022/08/16 02:27:53;;;;;;;9.32;7.82;;;;;;;27.64;41.59;98512.22;4888753;29;20037;-88
2022/08/16 02:30:25;;;;;;;10.25;7.68;;;;;;;27.61;41.71;98513.38;4889782;29;20060;-87
2022/08/16 02:32:51;;;;;;;9.60;7.78;;;;;;;27.58;41.72;98509.19;4889043;29;20028;-87
2022/08/16 02:35:18;;;;;;;9.60;8.05;;;;;;;27.57;41.65;98507.47;4888934;29;20056;-88
2022/08/16 02:37:43;;;;;;;8.50;7.53;;;;;;;27.56;41.83;98507.63;4888929;29;20052;-87
2022/08/16 02:40:10;;;;;;;10.40;7.38;;;;;;;27.53;41.84;98495.38;4889939;29;20027;-88
2022/08/16 02:42:36;;;;;;;9.75;7.70;;;;;;;27.52;41.91;98501.75;4889864;29;20032;-87
2022/08/16 02:45:03;;;;;;;9.95;7.97;;;;;;;27.51;42.00;98502.75;4921129;29;20060;-88
2022/08/16 02:47:29;;;;;;;9.38;7.35;;;;;;;27.49;41.65;98488.66;4890079;29;20029;-89
2022/08/16 02:49:55;;;;;;;8.95;7.30;;;;;;;27.50;41.72;98493.00;4889760;29;20083;-89
2022/08/16 02:52:21;;;;;;;8.93;7.35;;;;;;;27.48;41.89;98486.97;4894019;29;20096;-87
2022/08/16 02:54:47;;;;;;;9.40;7.40;;;;;;;27.48;41.80;98487.84;4893583;29;20020;-88
2022/08/16 02:57:12;;;;;;;9.77;7.03;;;;;;;27.47;41.84;98482.63;4892340;29;20056;-89
2022/08/16 02:59:41;;;;;;;8.18;6.50;;;;;;;27.45;41.97;98487.31;4892902;29;20051;-89
2022/08/16 03:02:09;;;;;;;7.85;7.10;;;;;;;27.44;41.96;98488.28;4890787;29;20088;-90
2022/08/16 03:04:35;;;;;;;7.90;6.95;;;;;;;27.42;41.89;98482.25;4889817;29;20043;-87
2022/08/16 03:07:02;;;;;;;8.77;7.45;;;;;;;27.40;41.91;98484.28;4888902;29;20032;-88
2022/08/16 03:09:28;;;;;;;8.70;7.60;;;;;;;27.40;41.87;98481.59;4887743;29;20077;-86
2022/08/16 03:11:53;;;;;;;7.88;6.68;;;;;;;27.38;41.92;98470.19;4887684;29;20374;-88
2022/08/16 03:14:19;;;;;;;8.98;7.13;;;;;;;27.38;42.06;98475.53;4886821;29;20025;-86
2022/08/16 03:16:45;;;;;;;11.18;7.78;;;;;;;27.37;41.78;98468.50;4903884;29;20100;-87
2022/08/16 03:19:11;;;;;;;8.20;7.00;;;;;;;27.36;42.07;98470.38;4887941;29;20111;-89
2022/08/16 03:21:37;;;;;;;9.40;7.20;;;;;;;27.36;41.85;98473.03;4887157;29;20120;-86
2022/08/16 03:24:03;;;;;;;9.38;7.15;;;;;;;27.34;41.91;98470.53;4886547;29;20373;-85
2022/08/16 03:26:28;;;;;;;9.40;7.20;;;;;;;27.31;41.87;98459.28;4887102;29;20029;-87
2022/08/16 03:28:54;;;;;;;8.50;7.07;;;;;;;27.31;41.86;98457.44;4887611;29;20067;-88
2022/08/16 03:31:20;;;;;;;9.13;7.57;;;;;;;27.29;42.05;98453.22;4887881;29;20028;-87
2022/08/16 03:33:46;;;;;;;8.18;7.38;;;;;;;27.25;42.15;98450.03;4887518;29;20029;-87
2022/08/16 03:36:11;;;;;;;9.13;7.20;;;;;;;27.26;41.98;98456.25;4886918;29;20263;-88
2022/08/16 03:38:37;;;;;;;9.18;7.68;;;;;;;27.21;41.96;98440.63;4889940;29;20462;-88
2022/08/16 03:41:05;;;;;;;8.05;7.22;;;;;;;27.20;41.90;98441.63;4904867;29;20107;-88
2022/08/16 03:43:31;;;;;;;10.30;7.72;;;;;;;27.19;41.92;98435.47;4887860;29;20442;-89
2022/08/16 03:45:58;;;;;;;9.23;7.35;;;;;;;27.18;42.01;98443.66;4889853;29;20124;-88
2022/08/16 03:48:26;;;;;;;8.52;7.20;;;;;;;27.14;41.96;98443.13;4890766;29;20029;-89
2022/08/16 03:50:52;;;;;;;9.45;7.45;;;;;;;27.13;42.04;98435.25;4889847;29;20123;-88
2022/08/16 03:53:18;;;;;;;7.97;6.70;;;;;;;27.14;42.19;98431.56;4892588;29;20055;-88
2022/08/16 03:55:44;;;;;;;11.07;7.43;;;;;;;27.10;41.96;98432.91;4924723;29;20514;-86
2022/08/16 03:58:09;;;;;;;8.68;7.00;;;;;;;27.07;42.03;98440.22;4885535;29;20493;-87
2022/08/16 04:00:35;;;;;;;11.00;7.10;;;;;;;27.08;42.02;98435.72;4916605;29;20030;-87
2022/08/16 04:03:06;;;;;;;8.43;7.35;;;;;;;27.04;42.05;98437.88;4884559;29;20343;-87
2022/08/16 04:05:41;;;;;;;9.50;7.18;;;;;;;27.04;41.91;98432.53;4884638;29;20032;-87
2022/08/16 04:08:07;;;;;;;8.68;6.80;;;;;;;27.02;42.12;98439.88;4885999;29;20039;-88
2022/08/16 04:10:33;;;;;;;8.10;6.80;;;;;;;27.03;41.99;98441.53;4885639;29;20374;-88
2022/08/16 04:12:58;;;;;;;8.52;7.07;;;;;;;27.02;42.05;98428.34;4885800;29;20024;-87
2022/08/16 04:15:28;;;;;;;9.35;7.20;;;;;;;26.99;42.04;98424.13;4886194;29;20366;-89
2022/08/16 04:17:54;;;;;;;9.52;6.95;;;;;;;26.98;42.25;98430.50;4885974;29;20032;-86
2022/08/16 04:20:20;;;;;;;9.30;7.07;;;;;;;26.96;42.14;98421.75;4886554;29;20036;-87
2022/08/16 04:22:46;;;;;;;8.90;7.35;;;;;;;26.96;42.18;98429.78;4885197;29;20414;-88
2022/08/16 04:25:12;;;;;;;11.25;7.82;;;;;;;26.94;41.80;98426.44;4884907;29;20020;-87
2022/08/16 04:27:39;;;;;;;9.70;7.03;;;;;;;26.93;42.13;98424.78;4885840;29;20037;-89
2022/08/16 04:30:17;;;;;;;9.90;7.15;;;;;;;26.90;42.20;98419.69;4885955;29;20032;-86
2022/08/16 04:32:43;;;;;;;8.13;7.32;;;;;;;26.91;42.08;98421.34;4884645;29;20024;-87
2022/08/16 04:35:15;;;;;;;8.95;6.95;;;;;;;26.88;41.77;98419.00;4884935;29;20112;-88
2022/08/16 04:37:42;;;;;;;8.50;7.03;;;;;;;26.85;41.85;98422.00;4885356;29;20048;-88
2022/08/16 04:40:09;;;;;;;8.82;7.80;;;;;;;26.86;42.10;98413.81;4886491;29;20029;-89
2022/08/16 04:42:38;;;;;;;10.20;7.63;;;;;;;26.85;41.92;98409.47;4903301;29;20408;-88
2022/08/16 04:45:05;;;;;;;10.25;7.45;;;;;;;26.85;41.91;98416.63;4885427;29;20032;-88
2022/08/16 04:47:32;;;;;;;8.98;7.30;;;;;;;26.83;41.85;98407.94;4884818;29;20029;-87
2022/08/16 04:49:58;;;;;;;8.77;7.25;;;;;;;26.81;41.73;98405.41;4884461;29;20032;-88
2022/08/16 04:52:23;;;;;;;9.48;7.25;;;;;;;26.77;41.96;98410.25;4900934;29;20035;-88
2022/08/16 04:54:49;;;;;;;7.93;6.85;;;;;;;26.76;41.87;98416.59;4884495;29;20032;-87
2022/08/16 04:57:15;;;;;;;8.25;7.10;;;;;;;26.72;42.01;98412.53;4884240;29;20028;-88
2022/08/16 04:59:41;;;;;;;9.57;7.03;;;;;;;26.70;42.05;98414.56;4900725;29;20063;-87
2022/08/16 05:02:06;;;;;;;8.32;7.47;;;;;;;26.68;42.26;98411.16;4884291;29;20028;-88
2022/08/16 05:04:32;;;;;;;8.13;6.97;;;;;;;26.66;42.07;98407.81;4884441;29;20024;-89
2022/08/16 05:06:58;;;;;;;8.38;7.10;;;;;;;26.64;42.19;98407.16;4884396;29;20029;-88
2022/08/16 05:09:24;;;;;;;7.93;6.63;;;;;;;26.61;41.95;98396.75;4902721;29;20035;-89
2022/08/16 05:11:49;;;;;;;8.70;7.03;;;;;;;26.59;42.22;98401.44;4885449;29;20039;-87
2022/08/16 05:14:15;;;;;;;8.00;6.80;;;;;;;26.57;42.04;98404.25;4889408;29;20639;-86
2022/08/16 05:16:42;;;;;;;9.07;7.07;;;;;;;26.54;41.98;98400.06;4890024;29;20028;-87
2022/08/16 05:19:08;;;;;;;7.70;6.90;;;;;;;26.54;42.22;98402.72;4890582;29;20032;-88
2022/08/16 05:21:34;;;;;;;8.38;6.38;;;;;;;26.51;42.29;98403.06;4890255;29;20032;-86
2022/08/16 05:24:00;;;;;;;9.57;6.65;;;;;;;26.50;42.46;98393.34;4889945;29;20035;-89
2022/08/16 05:26:28;;;;;;;8.40;6.68;;;;;;;26.44;42.54;98396.63;4889999;29;20450;-88
2022/08/16 05:28:56;;;;;;;8.00;6.45;;;;;;;26.43;42.34;98397.63;4890308;29;20411;-87
2022/08/16 05:31:24;;;;;;;8.93;6.22;;;;;;;26.42;42.17;98395.13;4890516;29;20115;-88
2022/08/16 05:33:50;;;;;;;7.32;6.38;;;;;;;26.42;42.35;98403.16;4892355;29;20032;-87
2022/08/16 05:36:16;;;;;;;7.93;6.55;;;;;;;26.35;42.35;98400.25;4891466;29;20060;-90
2022/08/16 05:38:41;;;;;;;7.47;6.10;;;;;;;26.35;42.45;98401.06;4891531;29;20071;-89
2022/08/16 05:41:10;;;;;;;8.10;7.20;;;;;;;26.35;42.62;98410.94;4921882;29;20036;-90
2022/08/16 05:43:36;;;;;;;8.48;6.43;;;;;;;26.32;42.53;98411.22;4890780;29;20032;-87
2022/08/16 05:46:02;;;;;;;9.93;6.82;;;;;;;26.29;42.63;98412.38;4890500;29;20115;-89
2022/08/16 05:48:28;;;;;;;8.18;6.60;;;;;;;26.29;42.69;98406.22;4891096;29;20119;-88
2022/08/16 05:50:53;;;;;;;10.27;5.90;;;;;;;26.30;42.54;98402.53;4890593;29;20102;-89
2022/08/16 05:53:19;;;;;;;9.02;6.05;;;;;;;26.27;42.58;98403.69;4891654;29;20039;-89
2022/08/16 05:55:45;;;;;;;7.45;5.80;;;;;;;26.26;42.66;98402.81;4908078;29;20063;-87
2022/08/16 05:58:10;;;;;;;7.25;5.93;;;;;;;26.25;42.93;98395.81;4891269;29;20024;-88
2022/08/16 06:00:36;;;;;;;8.07;5.95;;;;;;;26.22;42.77;98401.44;4890879;29;20451;-88
2022/08/16 06:03:02;;;;;;;7.18;5.88;;;;;;;26.23;42.86;98403.16;4891313;29;20373;-88
2022/08/16 06:05:28;;;;;;;9.40;6.22;;;;;;;26.22;42.90;98393.44;4891401;29;20100;-89
2022/08/16 06:07:54;;;;;;;7.78;6.18;;;;;;;26.22;42.87;98401.44;4893567;29;20028;-90
2022/08/16 06:10:20;;;;;;;8.23;5.90;;;;;;;26.19;43.17;98396.41;4894124;29;20123;-89
2022/08/16 06:12:45;;;;;;;8.88;6.45;;;;;;;26.21;43.13;98398.91;4897888;29;20055;-89
2022/08/16 06:15:15;;;;;;;8.30;6.28;;;;;;;26.21;42.97;98393.56;4899151;29;20033;-90
2022/08/16 06:17:42;;;;;;;8.88;6.15;;;;;;;26.17;43.13;98393.03;4899392;29;20028;-90
2022/08/16 06:20:09;;;;;;;8.30;6.32;;;;;;;26.17;43.28;98390.38;4897941;29;20024;-88
2022/08/16 06:22:37;;;;;;;8.73;5.95;;;;;;;26.18;43.13;98389.38;4893332;29;20074;-89
2022/08/16 06:25:03;;;;;;;8.85;6.47;;;;;;;26.17;43.05;98379.69;4887999;29;20035;-88
2022/08/16 06:27:29;;;;;;;7.28;6.18;;;;;;;26.17;43.27;98382.34;4888116;29;20035;-89
2022/08/16 06:29:55;;;;;;;9.02;6.13;;;;;;;26.18;43.45;98384.03;4889353;29;20374;-89
2022/08/16 06:32:21;;;;;;;8.93;6.15;;;;;;;26.20;43.16;98370.50;4889116;29;20028;-89
2022/08/16 06:34:46;;;;;;;10.93;6.72;;;;;;;26.20;43.10;98365.97;4910115;29;20115;-87
2022/08/16 06:37:12;;;;;;;7.82;6.55;;;;;;;26.21;42.99;98357.00;4888610;29;20366;-88
2022/08/16 06:39:38;;;;;;;8.63;7.22;;;;;;;26.23;43.13;98359.53;4887554;29;20040;-89
2022/08/16 06:42:04;;;;;;;11.32;7.80;;;;;;;26.21;43.22;98357.00;4887712;29;20047;-88
2022/08/16 06:44:30;;;;;;;12.35;7.20;;;;;;;26.23;43.41;98355.03;4903531;29;20029;-88
2022/08/16 06:46:58;;;;;;;13.73;7.15;;;;;;;26.23;43.13;98355.03;4887390;29;20084;-90
2022/08/16 06:49:24;;;;;;;9.25;6.95;;;;;;;26.24;42.98;98351.34;4887475;29;20478;-86
2022/08/16 06:51:49;;;;;;;9.35;7.05;;;;;;;26.25;43.18;98353.03;4887710;29;20096;-90
2022/08/16 06:54:17;;;;;;;9.93;7.00;;;;;;;26.26;43.19;98349.34;4888264;29;20454;-90
2022/08/16 06:56:43;;;;;;;9.27;7.70;;;;;;;26.27;43.25;98345.72;4886711;29;20066;-89
2022/08/16 06:59:11;;;;;;;8.65;7.75;;;;;;;26.29;43.05;98347.38;4886959;29;20466;-89
2022/08/16 07:01:39;;;;;;;11.10;7.25;;;;;;;26.32;43.28;98341.72;4886947;29;20032;-87
2022/08/16 07:04:06;;;;;;;8.80;7.63;;;;;;;26.32;43.56;98331.88;4887327;29;20083;-88
2022/08/16 07:06:32;;;;;;;10.73;8.35;;;;;;;26.34;43.34;98329.03;4887913;29;20464;-89
2022/08/16 07:08:57;;;;;;;9.40;7.68;;;;;;;26.36;43.25;98332.38;4906113;29;20062;-87
2022/08/16 07:11:25;;;;;;;10.15;7.30;;;;;;;26.38;43.08;98330.38;4889443;29;20579;-88
2022/08/16 07:13:52;;;;;;;10.57;7.15;;;;;;;26.40;43.43;98317.72;4888614;29;20032;-90
2022/08/16 07:16:18;;;;;;;8.18;6.75;;;;;;;26.41;43.27;98322.06;4889129;29;20473;-90
2022/08/16 07:18:44;;;;;;;10.43;6.95;;;;;;;26.43;43.44;98322.72;4889171;29;20061;-89
2022/08/16 07:21:11;;;;;;;9.52;7.18;;;;;;;26.44;43.23;98316.38;4889243;29;20489;-88
2022/08/16 07:23:40;;;;;;;9.32;6.43;;;;;;;26.48;43.24;98319.63;4889504;29;20028;-88
2022/08/16 07:26:10;;;;;;;8.43;6.10;;;;;;;26.50;43.28;98310.44;4888806;29;20058;-89
2022/08/16 07:28:36;;;;;;;9.40;6.70;;;;;;;26.52;43.19;98305.75;4888135;29;20467;-90
2022/08/16 07:31:03;;;;;;;9.50;6.30;;;;;;;26.57;43.38;98309.81;4891234;29;20038;-88
2022/08/16 07:33:33;;;;;;;8.25;6.80;;;;;;;26.57;43.41;98313.28;4891669;29;20029;-88
2022/08/16 07:35:59;;;;;;;8.85;6.60;;;;;;;26.61;43.32;98308.47;4889185;29;20063;-88
2022/08/16 07:38:26;;;;;;;8.30;6.05;;;;;;;26.62;43.10;98311.00;4904428;29;20024;-89
2022/08/16 07:40:55;;;;;;;8.43;6.07;;;;;;;26.63;43.34;98311.84;4887689;29;20029;-87
2022/08/16 07:43:22;;;;;;;8.30;6.10;;;;;;;26.65;43.11;98299.13;4903948;29;20039;-89
2022/08/16 07:45:48;;;;;;;8.93;5.63;;;;;;;26.65;43.10;98304.47;4888176;29;20040;-89
2022/08/16 07:48:13;;;;;;;8.57;5.90;;;;;;;26.66;43.03;98304.34;4888673;29;20375;-90
2022/08/16 07:50:40;;;;;;;7.78;6.35;;;;;;;26.68;42.85;98294.28;4888181;29;20069;-89
2022/08/16 07:53:06;;;;;;;9.65;6.43;;;;;;;26.69;43.17;98300.50;4887730;29;20073;-89
2022/08/16 07:55:32;;;;;;;9.63;6.28;;;;;;;26.70;42.83;98299.50;4889212;29;20029;-88
2022/08/16 07:57:58;;;;;;;9.45;6.85;;;;;;;26.72;43.22;98313.53;4890949;29;20125;-87
2022/08/16 08:00:23;;;;;;;7.72;5.78;;;;;;;26.75;43.04;98299.00;4888337;29;20024;-89
2022/08/16 08:02:49;;;;;;;9.98;7.65;;;;;;;26.78;42.67;98294.16;4888793;29;20048;-90
2022/08/16 08:05:16;;;;;;;12.18;7.97;;;;;;;26.79;42.52;98303.88;4888197;29;20052;-87
2022/08/16 08:07:41;;;;;;;9.20;7.13;;;;;;;26.81;42.34;98293.00;4904849;29;20455;-90
2022/08/16 08:10:08;;;;;;;9.63;7.55;;;;;;;26.84;42.35;98298.06;4921682;29;20032;-88
2022/08/16 08:12:35;;;;;;;10.20;7.63;;;;;;;26.85;42.27;98298.88;4890699;29;20043;-90
2022/08/16 08:15:01;;;;;;;9.75;7.60;;;;;;;26.88;42.02;98298.56;4890433;29;20032;-88
2022/08/16 08:17:32;;;;;;;9.32;6.72;;;;;;;26.90;41.97;98288.53;4920535;29;20055;-91
2022/08/16 08:19:58;;;;;;;9.60;6.72;;;;;;;26.94;42.03;98303.31;4889550;29;20028;-89
2022/08/16 08:22:24;;;;;;;8.20;6.22;;;;;;;26.94;41.74;98295.28;4890136;29;20125;-90
2022/08/16 08:24:51;;;;;;;8.38;6.72;;;;;;;26.97;41.72;98292.28;4889749;29;20036;-90
2022/08/16 08:27:20;;;;;;;11.98;7.15;;;;;;;26.99;41.61;98292.97;4888417;29;20036;-88
2022/08/16 08:29:47;;;;;;;11.60;6.85;;;;;;;27.00;41.43;98285.75;4888770;29;20096;-89
2022/08/16 08:32:27;;;;;;;11.20;6.43;;;;;;;27.03;41.52;98283.59;4891502;29;20036;-90
2022/08/16 08:34:57;;;;;;;9.52;5.90;;;;;;;27.08;41.55;98293.84;4894265;29;20058;-90
2022/08/16 08:37:29;;;;;;;10.57;5.93;;;;;;;27.08;41.26;98283.13;4896173;29;20029;-90
2022/08/16 08:39:55;;;;;;;8.07;6.15;;;;;;;27.10;41.34;98283.78;4897478;29;20029;-89
2022/08/16 08:42:30;;;;;;;12.55;6.78;;;;;;;27.13;41.43;98290.66;4891625;29;20419;-87
2022/08/16 08:45:04;;;;;;;8.23;5.68;;;;;;;27.13;41.37;98283.47;4921453;29;20535;-89
2022/08/16 08:47:35;;;;;;;8.00;6.10;;;;;;;27.16;41.33;98279.66;4887535;29;20024;-89
2022/08/16 08:50:08;;;;;;;10.82;6.15;;;;;;;27.16;41.20;98275.09;4889007;29;20505;-89
2022/08/16 08:52:34;;;;;;;9.93;6.80;;;;;;;27.17;41.35;98278.63;4888371;29;20180;-89
2022/08/16 08:55:04;;;;;;;7.95;5.78;;;;;;;27.18;41.19;98277.63;4887954;29;20099;-88
2022/08/16 08:57:36;;;;;;;10.95;6.82;;;;;;;27.19;41.39;98263.22;4887890;29;20048;-89
2022/08/16 09:00:04;;;;;;;9.00;6.07;;;;;;;27.24;41.31;98274.28;4904453;29;20092;-88
2022/08/16 09:02:35;;;;;;;6.68;5.78;;;;;;;27.23;41.37;98277.97;4888373;29;20123;-88
2022/08/16 09:05:01;;;;;;;7.70;5.90;;;;;;;27.26;41.06;98279.50;4919859;29;20107;-89
2022/08/16 09:07:27;;;;;;;8.48;6.80;;;;;;;27.27;41.10;98270.47;4888810;29;20025;-90
2022/08/16 09:09:54;;;;;;;9.50;5.93;;;;;;;27.27;41.14;98275.81;4888637;29;20056;-89
2022/08/16 09:12:26;;;;;;;12.68;7.05;;;;;;;27.30;41.37;98273.63;4889030;29;20044;-89
2022/08/16 09:14:55;;;;;;;8.70;6.43;;;;;;;27.31;41.16;98272.63;4905764;29;20028;-89
2022/08/16 09:17:23;;;;;;;10.10;7.10;;;;;;;27.34;41.30;98272.31;4891951;29;20028;-91
2022/08/16 09:19:50;;;;;;;9.38;6.95;;;;;;;27.39;40.93;98268.28;4893841;29;20028;-88
2022/08/16 09:22:17;;;;;;;10.63;7.88;;;;;;;27.41;40.86;98279.69;4891668;29;20036;-90
2022/08/16 09:24:43;;;;;;;9.38;7.13;;;;;;;27.45;41.01;98273.00;4893749;29;20033;-90
2022/08/16 09:27:11;;;;;;;10.65;7.68;;;;;;;27.47;40.72;98276.34;4907956;29;20080;-88
2022/08/16 09:29:37;;;;;;;7.05;5.57;;;;;;;27.50;40.65;98272.50;4891313;29;20052;-89
2022/08/16 09:32:03;;;;;;;9.45;6.70;;;;;;;27.51;40.75;98282.22;4889346;29;20028;-86
2022/08/16 09:34:32;;;;;;;8.20;6.72;;;;;;;27.56;40.56;98271.84;4885730;29;20025;-88
2022/08/16 09:36:58;;;;;;;11.02;7.50;;;;;;;27.57;40.47;98277.03;4902226;29;20029;-88
2022/08/16 09:39:25;;;;;;;10.70;7.25;;;;;;;27.59;40.59;98283.09;4886490;29;20024;-86
2022/08/16 09:41:58;;;;;;;9.38;7.25;;;;;;;27.59;40.36;98277.75;4885958;29;20344;-89
2022/08/16 09:44:26;;;;;;;10.35;7.25;;;;;;;27.64;40.46;98271.06;4887011;29;20029;-87
2022/08/16 09:46:54;;;;;;;8.07;6.93;;;;;;;27.66;40.25;98269.88;4886650;29;20124;-88
2022/08/16 09:49:21;;;;;;;9.45;6.75;;;;;;;27.70;40.64;98265.03;4885736;29;20044;-88
2022/08/16 09:51:53;;;;;;;8.25;6.97;;;;;;;27.72;40.39;98269.22;4886039;29;20040;-88
2022/08/16 09:54:20;;;;;;;11.98;7.35;;;;;;;27.73;40.40;98264.69;4884321;29;20025;-86
2022/08/16 09:56:47;;;;;;;9.90;7.68;;;;;;;27.77;40.44;98265.19;4901847;29;20025;-91
2022/08/16 09:59:14;;;;;;;9.90;7.47;;;;;;;27.79;40.31;98268.53;4885949;29;20097;-87
2022/08/16 10:01:43;;;;;;;8.75;6.40;;;;;;;27.81;40.29;98262.00;4891107;29;20025;-88
2022/08/16 10:04:10;;;;;;;8.80;6.53;;;;;;;27.82;40.37;98266.38;4891025;29;20036;-86
2022/08/16 10:06:44;;;;;;;10.05;7.43;;;;;;;27.88;40.03;98267.53;4907786;29;20053;-87
2022/08/16 10:09:12;;;;;;;8.13;6.97;;;;;;;27.90;40.36;98260.19;4892538;29;20031;-87
2022/08/16 10:14:29;;;;;;;9.00;7.30;;;;;;;27.98;39.98;98256.63;4910513;29;20039;-88
2022/08/16 10:17:03;;;;;;;8.60;7.00;;;;;;;28.01;40.26;98258.97;4891862;29;20036;-88
2022/08/16 10:19:33;;;;;;;10.63;7.70;;;;;;;28.03;39.97;98256.97;4889401;29;20035;-88
2022/08/16 10:26:01;;;;;;;8.43;6.45;;;;;;;28.11;39.98;98275.75;4901418;29;20586;-87
2022/08/16 10:28:33;;;;;;;7.85;6.47;;;;;;;28.15;40.21;98285.09;4889218;29;20123;-88
2022/08/16 10:31:01;;;;;;;10.27;6.88;;;;;;;28.18;39.64;98267.00;4894669;29;20044;-88
2022/08/16 10:33:33;;;;;;;10.18;7.00;;;;;;;28.20;39.54;98278.41;4895502;29;20109;-88
2022/08/16 10:36:05;;;;;;;7.53;6.63;;;;;;;28.20;39.63;98279.25;4897292;29;20163;-88
2022/08/16 10:38:43;;;;;;;8.63;7.32;;;;;;;28.21;39.71;98267.50;4891492;29;20040;-86
2022/08/16 10:41:14;;;;;;;10.15;6.70;;;;;;;28.25;39.70;98263.50;4892382;29;20059;-85
2022/08/16 10:44:07;;;;;;;14.68;7.70;;;;;;;28.28;39.60;98259.66;4894942;29;20438;-86
2022/08/16 10:46:35;;;;;;;9.27;7.10;;;;;;;28.33;39.71;98257.28;4894490;29;20032;-88
2022/08/16 10:49:01;;;;;;;9.13;6.43;;;;;;;28.35;39.79;98263.31;4894601;29;20032;-87
2022/08/16 10:51:30;;;;;;;10.23;7.53;;;;;;;28.38;39.92;98256.78;4895098;29;20040;-86
2022/08/16 10:53:57;;;;;;;11.23;7.43;;;;;;;28.38;39.85;98257.59;4896097;29;20037;-86
2022/08/16 10:56:24;;;;;;;13.80;7.90;;;;;;;28.43;39.73;98253.56;4896498;29;20040;-88
2022/08/16 10:58:51;;;;;;;10.13;6.82;;;;;;;28.45;39.50;98262.28;4898772;29;20028;-86
2022/08/16 11:01:17;;;;;;;12.00;7.18;;;;;;;28.46;39.42;98254.06;4897397;29;20032;-86
2022/08/16 11:03:44;;;;;;;11.68;7.22;;;;;;;28.48;39.55;98256.59;4914850;29;20029;-87
2022/08/16 11:06:13;;;;;;;12.65;7.88;;;;;;;28.51;39.48;98266.94;4893903;29;20403;-86
2022/08/16 11:08:38;;;;;;;11.02;7.53;;;;;;;28.53;39.59;98260.41;4893343;29;20033;-87
2022/08/16 11:11:12;;;;;;;11.00;7.95;;;;;;;28.58;39.71;98283.22;4893518;29;20064;-87
2022/08/16 11:13:38;;;;;;;8.55;6.88;;;;;;;28.59;39.61;98282.19;4893572;29;20032;-86
2022/08/16 11:16:05;;;;;;;9.60;6.20;;;;;;;28.62;39.52;98273.81;4892225;29;20028;-86
2022/08/16 11:18:38;;;;;;;11.13;7.15;;;;;;;28.63;39.24;98276.34;4906466;29;20029;-87
2022/08/16 11:21:03;;;;;;;11.90;7.70;;;;;;;28.63;39.15;98276.34;4892797;29;20028;-86
2022/08/16 11:23:30;;;;;;;9.40;7.45;;;;;;;28.63;39.22;98280.84;4892525;29;20199;-86
2022/08/16 11:25:56;;;;;;;11.82;8.40;;;;;;;28.65;39.38;98290.41;4891867;29;20518;-86
2022/08/16 11:28:23;;;;;;;9.63;7.65;;;;;;;28.67;38.98;98299.13;4891851;29;20164;-87
2022/08/16 11:30:50;;;;;;;12.60;9.18;;;;;;;28.67;38.85;98293.75;4892623;29;20043;-87
2022/08/16 11:33:28;;;;;;;10.50;8.75;;;;;;;28.70;39.21;98297.94;4892346;29;20033;-87
2022/08/16 11:35:54;;;;;;;14.90;10.52;;;;;;;28.71;39.02;98294.22;4908420;29;20060;-86
2022/08/16 11:38:22;;;;;;;11.52;9.35;;;;;;;28.70;39.02;98303.31;4894297;29;20028;-86